Time;durP1;ratioP1;P1;durP2;ratioP2;P2;SDS_P1;SDS_P2;PMS_P1;PMS_P2;Temp;Humidity;BMP_temperature;BMP_pressure;BME280_temperature;BME280_humidity;BME280_pressure;Samples;Min_cycle;Max_cycle;Signal;HPM_P1;HPM_P2
2023/08/14 00:00:21;;;;;;;5.60;4.00;;;16.60;99.90;;;;;;5069613;28;20209;-86
2023/08/14 00:02:46;;;;;;;4.93;3.90;;;16.60;99.90;;;;;;5035946;28;20262;-86
2023/08/14 00:05:12;;;;;;;9.13;4.20;;;16.50;99.90;;;;;;5037628;28;20203;-86
2023/08/14 00:07:37;;;;;;;5.97;3.97;;;16.60;99.90;;;;;;5036148;28;20206;-86
2023/08/14 00:10:05;;;;;;;7.37;4.00;;;16.60;99.90;;;;;;5038466;28;20179;-86
2023/08/14 00:12:33;;;;;;;5.73;4.17;;;16.60;99.90;;;;;;5055795;28;20175;-86
2023/08/14 00:15:00;;;;;;;6.10;3.83;;;16.60;99.90;;;;;;5039989;28;20185;-86
2023/08/14 00:17:26;;;;;;;7.73;3.93;;;16.50;99.90;;;;;;5056380;28;20543;-85
2023/08/14 00:19:51;;;;;;;8.53;4.07;;;16.40;99.90;;;;;;5055690;28;20182;-86
2023/08/14 00:22:17;;;;;;;9.00;4.67;;;16.40;99.90;;;;;;5057092;28;20198;-86
2023/08/14 00:24:43;;;;;;;5.13;4.00;;;16.40;99.90;;;;;;5056463;28;20209;-86
2023/08/14 00:27:08;;;;;;;9.10;4.00;;;16.40;99.90;;;;;;5055833;28;20274;-86
2023/08/14 00:29:34;;;;;;;7.13;4.07;;;16.30;99.90;;;;;;5055787;28;20224;-86
2023/08/14 00:32:00;;;;;;;4.37;3.73;;;16.40;99.90;;;;;;5057060;28;20179;-85
2023/08/14 00:34:25;;;;;;;7.67;4.07;;;16.40;99.90;;;;;;5055508;28;20178;-86
2023/08/14 00:36:51;;;;;;;4.53;4.13;;;16.40;99.90;;;;;;5054427;28;20171;-88
2023/08/14 00:39:17;;;;;;;8.27;4.37;;;16.40;99.90;;;;;;5046548;28;20186;-85
2023/08/14 00:41:42;;;;;;;9.60;3.97;;;16.40;99.90;;;;;;5034653;28;20203;-85
2023/08/14 00:44:12;;;;;;;4.57;3.87;;;16.40;99.90;;;;;;5037640;28;20660;-85
2023/08/14 00:46:38;;;;;;;4.30;3.67;;;16.40;99.90;;;;;;5035245;28;20258;-86
2023/08/14 00:49:06;;;;;;;7.70;3.77;;;16.40;99.90;;;;;;5036172;28;20195;-86
2023/08/14 00:51:33;;;;;;;6.60;4.37;;;16.40;99.90;;;;;;5034769;28;20175;-86
2023/08/14 00:53:58;;;;;;;6.77;3.80;;;16.40;99.90;;;;;;5034930;28;20175;-86
2023/08/14 00:56:24;;;;;;;4.93;4.00;;;16.30;99.90;;;;;;5044323;28;20178;-85
2023/08/14 00:58:50;;;;;;;4.07;3.70;;;16.30;99.90;;;;;;5047539;28;20204;-86
2023/08/14 01:01:18;;;;;;;4.70;3.97;;;16.20;99.90;;;;;;5046132;28;20199;-85
2023/08/14 01:03:44;;;;;;;4.53;4.13;;;16.20;99.90;;;;;;5043420;28;20182;-86
2023/08/14 01:06:11;;;;;;;5.63;4.37;;;16.20;99.90;;;;;;5039891;28;20175;-86
2023/08/14 01:08:38;;;;;;;8.33;4.50;;;16.20;99.90;;;;;;5056594;28;20271;-86
2023/08/14 01:11:23;;;;;;;4.23;3.60;;;16.10;99.90;;;;;;5055719;28;20179;-86
2023/08/14 01:14:21;;;;;;;5.70;4.37;;;16.00;99.90;;;;;;5057391;28;20189;-86
2023/08/14 01:16:55;;;;;;;5.23;4.40;;;16.00;99.90;;;;;;5055745;28;20198;-85
2023/08/14 01:19:26;;;;;;;6.93;4.07;;;16.00;99.90;;;;;;5055926;28;20187;-87
2023/08/14 01:22:08;;;;;;;4.93;4.00;;;15.90;99.90;;;;;;5055587;28;20318;-85
2023/08/14 01:24:52;;;;;;;9.63;4.63;;;15.90;99.90;;;;;;5055502;28;20252;-87
2023/08/14 01:27:21;;;;;;;4.83;4.33;;;15.80;99.90;;;;;;5060288;28;20222;-86
2023/08/14 01:29:58;;;;;;;6.40;4.50;;;15.80;99.90;;;;;;5055238;28;20190;-86
2023/08/14 01:32:25;;;;;;;5.43;4.20;;;15.80;99.90;;;;;;5047915;28;20187;-87
2023/08/14 01:34:52;;;;;;;11.40;4.43;;;15.80;99.90;;;;;;5019167;28;20179;-86
2023/08/14 01:37:54;;;;;;;7.57;4.13;;;15.80;99.90;;;;;;5036557;28;20195;-86
2023/08/14 01:40:39;;;;;;;7.00;4.27;;;15.70;99.90;;;;;;5035688;28;20203;-86
2023/08/14 01:43:13;;;;;;;7.00;4.50;;;15.70;99.90;;;;;;5036416;28;20195;-86
2023/08/14 01:45:40;;;;;;;8.60;4.90;;;15.70;99.90;;;;;;5035689;28;20194;-86
2023/08/14 01:48:11;;;;;;;7.30;4.37;;;15.70;99.90;;;;;;5034356;28;20199;-86
2023/08/14 01:50:38;;;;;;;7.77;4.30;;;15.70;99.90;;;;;;5034525;28;20183;-86
2023/08/14 01:53:05;;;;;;;4.57;4.13;;;15.60;99.90;;;;;;5035606;28;20645;-86
2023/08/14 01:55:33;;;;;;;7.43;4.43;;;15.60;99.90;;;;;;5034097;28;20549;-86
2023/08/14 01:57:58;;;;;;;5.10;4.53;;;15.50;99.90;;;;;;5034227;28;20199;-86
2023/08/14 02:00:24;;;;;;;5.17;4.67;;;15.50;99.90;;;;;;5041161;28;20259;-86
2023/08/14 02:02:50;;;;;;;5.87;4.30;;;15.50;99.90;;;;;;5053852;28;20178;-86
2023/08/14 02:05:16;;;;;;;7.90;4.63;;;15.50;99.90;;;;;;5054233;28;20167;-86
2023/08/14 02:07:42;;;;;;;6.67;4.27;;;15.50;99.90;;;;;;5053417;28;20707;-86
2023/08/14 02:10:08;;;;;;;8.43;4.50;;;15.50;99.90;;;;;;5037458;28;20232;-86
2023/08/14 02:12:34;;;;;;;12.97;5.03;;;15.40;99.90;;;;;;5059957;28;20175;-86
2023/08/14 02:14:59;;;;;;;7.53;4.00;;;15.40;99.90;;;;;;5053877;28;20229;-87
2023/08/14 02:17:27;;;;;;;13.20;4.70;;;15.40;99.90;;;;;;5053378;28;20262;-86
2023/08/14 02:19:54;;;;;;;8.27;4.27;;;15.40;99.90;;;;;;5053501;28;20186;-85
2023/08/14 02:22:21;;;;;;;6.23;5.13;;;15.30;99.90;;;;;;5037497;28;20257;-86
2023/08/14 02:24:48;;;;;;;7.57;4.67;;;15.30;99.90;;;;;;5037622;28;20179;-88
2023/08/14 02:27:14;;;;;;;6.30;4.90;;;15.30;99.90;;;;;;5054038;28;20286;-86
2023/08/14 02:29:39;;;;;;;5.87;5.03;;;15.30;99.90;;;;;;5035426;28;20203;-86
2023/08/14 02:32:07;;;;;;;6.20;4.60;;;15.30;99.90;;;;;;5034138;28;20182;-86
2023/08/14 02:34:48;;;;;;;6.13;4.23;;;15.20;99.90;;;;;;5033949;28;20175;-86
2023/08/14 02:37:15;;;;;;;7.87;4.77;;;15.10;99.90;;;;;;5035639;28;20249;-86
2023/08/14 02:39:41;;;;;;;7.33;4.90;;;15.10;99.90;;;;;;5034391;28;20180;-85
2023/08/14 02:42:08;;;;;;;5.27;4.80;;;15.10;99.90;;;;;;5034220;28;20218;-85
2023/08/14 02:44:35;;;;;;;4.93;4.43;;;15.10;99.90;;;;;;5035890;28;20175;-87
2023/08/14 02:47:02;;;;;;;5.83;4.73;;;15.00;99.90;;;;;;5017652;28;20561;-87
2023/08/14 02:49:28;;;;;;;9.60;4.63;;;15.00;99.90;;;;;;5034129;28;20178;-86
2023/08/14 02:51:55;;;;;;;5.30;4.77;;;15.00;99.90;;;;;;5033318;28;20195;-86
2023/08/14 02:54:21;;;;;;;4.90;4.40;;;15.10;99.90;;;;;;5066932;28;20179;-86
2023/08/14 02:56:48;;;;;;;12.07;4.60;;;15.00;99.90;;;;;;5044257;28;20198;-86
2023/08/14 02:59:14;;;;;;;11.13;4.40;;;15.00;99.90;;;;;;5057766;28;20181;-85
2023/08/14 03:01:40;;;;;;;9.73;4.77;;;15.00;99.90;;;;;;5055983;28;20268;-85
2023/08/14 03:04:07;;;;;;;5.83;5.10;;;15.00;99.90;;;;;;5057118;28;20704;-86
2023/08/14 03:06:33;;;;;;;7.63;4.60;;;14.90;99.90;;;;;;5057284;28;20182;-86
2023/08/14 03:08:59;;;;;;;7.60;4.90;;;14.90;99.90;;;;;;5058622;28;20195;-86
2023/08/14 03:11:25;;;;;;;4.90;4.50;;;14.90;99.90;;;;;;5057471;28;20187;-86
2023/08/14 03:13:51;;;;;;;5.20;4.70;;;14.90;99.90;;;;;;5058867;28;20179;-86
2023/08/14 03:16:17;;;;;;;7.30;4.77;;;14.90;99.90;;;;;;5057100;28;20182;-85
2023/08/14 03:18:43;;;;;;;8.37;5.10;;;14.90;99.90;;;;;;5057022;28;20198;-86
2023/08/14 03:21:09;;;;;;;11.87;4.90;;;14.90;99.90;;;;;;5057949;28;20199;-86
2023/08/14 03:23:41;;;;;;;7.47;5.13;;;14.90;99.90;;;;;;5056605;28;20185;-85
2023/08/14 03:26:07;;;;;;;7.63;4.97;;;14.80;99.90;;;;;;5038274;28;20561;-86
2023/08/14 03:28:33;;;;;;;4.80;4.40;;;14.80;99.90;;;;;;5038901;28;20195;-86
2023/08/14 03:31:00;;;;;;;7.60;4.77;;;14.80;99.90;;;;;;5040000;28;20190;-88
2023/08/14 03:33:25;;;;;;;6.30;5.70;;;14.80;99.90;;;;;;5040321;28;20172;-86
2023/08/14 03:35:54;;;;;;;5.70;4.90;;;14.80;99.90;;;;;;5040613;28;20190;-86
2023/08/14 03:38:20;;;;;;;5.33;4.90;;;14.80;99.90;;;;;;5039759;28;20192;-86
2023/08/14 03:40:46;;;;;;;8.97;5.70;;;14.80;99.90;;;;;;5039727;28;20712;-86
2023/08/14 03:43:12;;;;;;;7.43;4.97;;;14.80;99.90;;;;;;5040226;28;20189;-85
2023/08/14 03:45:37;;;;;;;13.10;5.80;;;14.70;99.90;;;;;;5042565;28;20174;-85
2023/08/14 03:48:03;;;;;;;6.97;4.93;;;14.70;99.90;;;;;;5040442;28;20564;-86
2023/08/14 03:50:29;;;;;;;7.57;5.50;;;14.70;99.90;;;;;;5041384;28;20187;-86
2023/08/14 03:52:55;;;;;;;6.70;6.00;;;14.70;99.90;;;;;;5053396;28;20179;-86
2023/08/14 03:55:21;;;;;;;5.60;4.90;;;14.70;99.90;;;;;;5060956;28;20186;-86
2023/08/14 03:57:46;;;;;;;8.43;5.80;;;14.70;99.90;;;;;;5059227;28;20203;-86
2023/08/14 04:00:13;;;;;;;6.70;5.13;;;14.70;99.90;;;;;;5063830;28;20187;-86
2023/08/14 04:02:39;;;;;;;7.13;5.13;;;14.70;99.90;;;;;;5063169;28;20179;-86
2023/08/14 04:05:06;;;;;;;10.13;5.67;;;14.70;99.90;;;;;;5059048;28;20193;-86
2023/08/14 04:07:32;;;;;;;7.93;5.47;;;14.70;99.90;;;;;;5065811;28;20229;-86
2023/08/14 04:09:57;;;;;;;6.17;5.57;;;14.70;99.90;;;;;;5064687;28;20178;-86
2023/08/14 04:12:24;;;;;;;5.57;4.97;;;14.60;99.90;;;;;;5061281;28;20190;-87
2023/08/14 04:14:50;;;;;;;11.40;5.73;;;14.60;99.90;;;;;;5057413;28;20179;-87
2023/08/14 04:17:16;;;;;;;6.87;6.03;;;14.60;99.90;;;;;;5021983;28;20293;-86
2023/08/14 04:19:43;;;;;;;9.77;6.07;;;14.60;99.90;;;;;;5052366;28;20206;-86
2023/08/14 04:22:09;;;;;;;9.03;5.70;;;14.60;99.90;;;;;;5034346;28;20244;-85
2023/08/14 04:24:35;;;;;;;5.87;5.37;;;14.50;99.90;;;;;;5035470;28;20546;-86
2023/08/14 04:27:01;;;;;;;5.93;5.43;;;14.50;99.90;;;;;;5035658;28;20180;-86
2023/08/14 04:29:26;;;;;;;10.60;5.77;;;14.50;99.90;;;;;;5039570;28;20213;-85
2023/08/14 04:31:52;;;;;;;9.93;5.63;;;14.50;99.90;;;;;;5045805;28;20198;-86
2023/08/14 04:34:20;;;;;;;9.60;5.73;;;14.50;99.90;;;;;;5036599;28;20180;-87
2023/08/14 04:36:46;;;;;;;9.30;6.10;;;14.50;99.90;;;;;;5036976;28;20180;-86
2023/08/14 04:39:12;;;;;;;10.57;6.20;;;14.50;99.90;;;;;;5035619;28;20282;-87
2023/08/14 04:41:38;;;;;;;6.23;5.63;;;14.50;99.90;;;;;;5017958;28;20218;-86
2023/08/14 04:44:04;;;;;;;8.50;5.67;;;14.60;99.90;;;;;;5035044;28;20172;-87
2023/08/14 04:46:34;;;;;;;5.90;5.40;;;14.60;99.90;;;;;;5034380;28;20255;-87
2023/08/14 04:49:01;;;;;;;5.97;5.47;;;14.60;99.90;;;;;;5048772;28;20205;-87
2023/08/14 04:51:28;;;;;;;8.37;6.27;;;14.70;99.90;;;;;;5037341;28;20203;-87
2023/08/14 04:53:55;;;;;;;7.13;5.67;;;14.80;99.90;;;;;;5053930;28;20182;-87
2023/08/14 04:56:21;;;;;;;9.37;6.07;;;14.80;99.90;;;;;;5053935;28;20185;-87
2023/08/14 04:58:48;;;;;;;12.80;5.97;;;14.90;99.90;;;;;;5053966;28;20203;-87
2023/08/14 05:01:14;;;;;;;6.77;6.07;;;14.90;99.90;;;;;;5046130;28;20203;-87
2023/08/14 05:03:41;;;;;;;13.43;5.83;;;15.00;99.90;;;;;;5035706;28;20179;-87
2023/08/14 05:06:07;;;;;;;9.33;6.37;;;15.10;99.90;;;;;;5034262;28;20253;-87
2023/08/14 05:08:32;;;;;;;8.03;6.60;;;15.20;99.90;;;;;;5035069;28;20191;-87
2023/08/14 05:10:59;;;;;;;10.47;6.10;;;15.20;99.90;;;;;;5034068;28;20175;-87
2023/08/14 05:13:25;;;;;;;6.33;5.30;;;15.20;99.90;;;;;;5033575;28;20206;-87
2023/08/14 05:15:51;;;;;;;8.40;5.60;;;15.30;99.90;;;;;;5037774;28;20180;-87
2023/08/14 05:18:17;;;;;;;8.80;5.13;;;15.30;99.90;;;;;;5017643;28;20234;-89
2023/08/14 05:20:45;;;;;;;9.93;5.87;;;15.40;99.90;;;;;;5034463;28;20762;-93
2023/08/14 05:23:12;;;;;;;8.60;6.53;;;15.50;99.90;;;;;;5038218;28;20182;-86
2023/08/14 05:25:37;;;;;;;8.97;5.80;;;15.60;99.90;;;;;;5042341;28;20175;-86
2023/08/14 05:28:06;;;;;;;7.60;6.03;;;15.60;99.90;;;;;;5043052;28;20593;-87
2023/08/14 05:30:32;;;;;;;6.93;5.40;;;15.80;99.90;;;;;;5045719;28;20518;-86
2023/08/14 05:32:59;;;;;;;10.60;5.63;;;15.90;99.90;;;;;;5051478;28;20186;-87
2023/08/14 05:35:25;;;;;;;6.40;5.73;;;16.00;99.90;;;;;;5042966;28;20187;-87
2023/08/14 05:37:52;;;;;;;6.43;5.57;;;16.10;99.90;;;;;;5036167;28;20565;-87
2023/08/14 05:40:25;;;;;;;9.33;5.30;;;16.20;99.90;;;;;;5036087;28;20178;-86
2023/08/14 05:43:08;;;;;;;8.80;5.87;;;16.30;99.90;;;;;;5036443;28;20213;-86
2023/08/14 05:45:36;;;;;;;7.33;5.37;;;16.60;99.90;;;;;;5037570;28;20172;-87
2023/08/14 05:48:04;;;;;;;7.77;5.00;;;16.70;99.90;;;;;;5036795;28;20202;-86
2023/08/14 05:50:30;;;;;;;8.97;4.67;;;16.90;99.90;;;;;;5037303;28;20292;-86
2023/08/14 05:52:59;;;;;;;5.77;4.93;;;17.10;99.90;;;;;;5043888;28;20183;-86
2023/08/14 05:55:26;;;;;;;5.80;4.60;;;17.40;99.90;;;;;;5038846;28;20210;-86
2023/08/14 05:57:52;;;;;;;4.53;4.10;;;17.60;99.90;;;;;;5036576;28;20520;-86
2023/08/14 06:00:19;;;;;;;4.40;4.00;;;17.90;99.90;;;;;;5034779;28;20217;-86
2023/08/14 06:02:45;;;;;;;5.43;3.87;;;18.20;99.90;;;;;;5042998;28;20187;-88
2023/08/14 06:05:12;;;;;;;5.70;3.60;;;18.40;99.90;;;;;;5036166;28;20210;-86
2023/08/14 06:07:37;;;;;;;8.23;3.77;;;18.60;99.90;;;;;;5037090;28;20693;-87
2023/08/14 06:10:05;;;;;;;9.53;4.17;;;18.80;99.90;;;;;;5037631;28;20171;-86
2023/08/14 06:12:34;;;;;;;9.57;3.77;;;19.00;99.90;;;;;;5036171;28;20183;-86
2023/08/14 06:15:00;;;;;;;5.20;3.23;;;19.20;99.90;;;;;;5038498;28;20167;-85
2023/08/14 06:17:26;;;;;;;5.90;3.27;;;19.30;99.90;;;;;;5034158;28;20211;-86
2023/08/14 06:19:52;;;;;;;5.27;3.37;;;19.30;99.90;;;;;;5033591;28;20171;-86
2023/08/14 06:22:20;;;;;;;3.80;3.47;;;19.30;99.90;;;;;;5035158;28;20635;-86
2023/08/14 06:24:46;;;;;;;3.50;3.20;;;19.20;99.90;;;;;;5056271;28;20661;-86
2023/08/14 06:27:12;;;;;;;3.97;3.47;;;19.20;99.90;;;;;;5052965;28;20195;-86
2023/08/14 06:29:38;;;;;;;6.93;4.00;;;19.30;99.90;;;;;;5052206;28;20170;-86
2023/08/14 06:32:07;;;;;;;8.23;3.70;;;19.40;99.90;;;;;;5052522;28;20222;-86
2023/08/14 06:34:32;;;;;;;8.73;3.90;;;19.50;99.90;;;;;;5058297;28;20170;-85
2023/08/14 06:36:58;;;;;;;3.95;3.22;;;19.70;99.90;;;;;;5081179;28;20182;-84
2023/08/14 06:39:24;;;;;;;7.25;3.78;;;20.00;99.90;;;;;;5080584;28;20167;-84
2023/08/14 06:41:49;;;;;;;5.00;4.05;;;20.30;99.90;;;;;;5079795;28;20225;-85
2023/08/14 06:44:16;;;;;;;4.75;3.63;;;20.50;99.90;;;;;;5081087;28;20184;-85
2023/08/14 06:46:42;;;;;;;5.88;3.80;;;21.00;99.90;;;;;;5079214;28;20169;-84
2023/08/14 06:49:10;;;;;;;4.30;3.33;;;21.30;99.90;;;;;;5060171;28;20191;-85
2023/08/14 06:51:35;;;;;;;5.57;3.40;;;21.90;99.90;;;;;;5077050;28;20159;-85
2023/08/14 06:54:01;;;;;;;7.28;3.88;;;22.20;99.90;;;;;;5072985;28;20179;-85
2023/08/14 06:56:26;;;;;;;5.13;3.53;;;22.50;99.90;;;;;;5060177;28;20171;-85
2023/08/14 06:58:52;;;;;;;3.80;3.40;;;22.50;99.90;;;;;;5059678;28;20191;-87
2023/08/14 07:01:19;;;;;;;6.75;3.97;;;22.60;99.90;;;;;;5073553;28;20198;-84
2023/08/14 07:03:44;;;;;;;6.93;3.67;;;22.70;99.90;;;;;;5079963;28;20194;-86
2023/08/14 07:06:10;;;;;;;3.95;3.40;;;22.90;99.90;;;;;;5057870;28;20190;-87
2023/08/14 07:08:36;;;;;;;6.47;3.75;;;23.30;99.90;;;;;;5040651;28;20199;-87
2023/08/14 07:11:02;;;;;;;5.18;3.40;;;23.70;99.90;;;;;;5056366;28;20175;-89
2023/08/14 07:13:27;;;;;;;8.10;3.75;;;23.70;99.90;;;;;;5055652;28;20179;-86
2023/08/14 07:15:53;;;;;;;4.75;3.83;;;23.70;99.90;;;;;;5048198;28;20184;-87
2023/08/14 07:18:19;;;;;;;5.22;4.72;;;23.70;99.90;;;;;;5040250;28;20193;-86
2023/08/14 07:20:45;;;;;;;8.02;4.38;;;23.80;99.90;;;;;;5037725;28;20199;-86
2023/08/14 07:23:14;;;;;;;6.32;4.78;;;23.80;99.90;;;;;;5035781;28;20168;-86
2023/08/14 07:25:40;;;;;;;4.68;3.97;;;23.80;99.90;;;;;;5031372;28;20213;-87
2023/08/14 07:28:06;;;;;;;5.97;3.90;;;23.80;99.90;;;;;;5036072;28;20207;-86
2023/08/14 07:30:31;;;;;;;4.68;3.58;;;23.80;99.90;;;;;;5036917;28;20258;-87
2023/08/14 07:32:57;;;;;;;6.68;3.58;;;24.00;99.90;;;;;;5038117;28;20273;-87
2023/08/14 07:35:24;;;;;;;5.22;3.78;;;24.50;99.90;;;;;;5039835;28;20183;-87
2023/08/14 07:37:51;;;;;;;7.40;4.15;;;25.00;99.90;;;;;;5036030;28;20199;-86
2023/08/14 07:40:20;;;;;;;7.63;3.92;;;25.60;99.90;;;;;;5036535;28;20179;-87
2023/08/14 07:42:46;;;;;;;7.05;6.40;;;26.00;99.90;;;;;;5020063;28;20199;-87
2023/08/14 07:45:11;;;;;;;6.40;3.85;;;26.50;99.90;;;;;;5038155;28;20208;-87
2023/08/14 07:47:37;;;;;;;6.65;4.15;;;26.70;99.90;;;;;;5037343;28;20218;-87
2023/08/14 07:50:03;;;;;;;6.80;5.30;;;26.60;99.90;;;;;;5067098;28;20206;-87
2023/08/14 07:52:30;;;;;;;6.55;4.35;;;26.40;99.90;;;;;;5040653;28;20172;-86
2023/08/14 07:54:57;;;;;;;5.18;3.40;;;26.20;99.90;;;;;;5038993;28;20235;-87
2023/08/14 07:57:23;;;;;;;7.40;4.38;;;26.30;99.90;;;;;;5037858;28;20333;-87
2023/08/14 07:59:49;;;;;;;10.15;4.65;;;26.80;99.90;;;;;;5036603;28;20171;-86
2023/08/14 08:02:15;;;;;;;5.35;3.75;;;27.40;99.90;;;;;;5037578;28;20217;-87
2023/08/14 08:04:41;;;;;;;4.90;3.13;;;28.00;99.90;;;;;;5036269;28;20175;-87
2023/08/14 08:07:07;;;;;;;7.18;4.63;;;28.70;99.90;;;;;;5036832;28;20329;-87
2023/08/14 08:09:32;;;;;;;5.35;3.90;;;29.40;99.90;;;;;;5037275;28;20174;-87
2023/08/14 08:11:58;;;;;;;4.97;3.70;;;29.90;99.90;;;;;;5035242;28;20210;-88
2023/08/14 08:14:26;;;;;;;8.55;3.55;;;30.30;99.90;;;;;;5036226;28;20237;-87
2023/08/14 08:16:53;;;;;;;5.70;2.83;;;30.30;99.90;;;;;;5035735;28;20180;-87
2023/08/14 08:19:19;;;;;;;7.07;3.40;;;30.50;99.90;;;;;;5037781;28;20187;-87
2023/08/14 08:21:44;;;;;;;9.18;7.88;;;30.60;99.90;;;;;;5047123;28;20561;-87
2023/08/14 08:24:10;;;;;;;5.03;2.53;;;30.80;99.90;;;;;;5055035;28;20690;-87
2023/08/14 08:26:36;;;;;;;7.15;4.13;;;31.10;99.90;;;;;;5055837;28;20179;-87
2023/08/14 08:29:03;;;;;;;11.13;10.27;;;31.40;99.90;;;;;;5053774;28;20218;-86
2023/08/14 08:31:29;;;;;;;5.63;4.00;;;31.80;99.90;;;;;;5069078;28;20180;-86
2023/08/14 08:33:56;;;;;;;4.80;3.40;;;32.10;99.90;;;;;;5037372;28;20332;-86
2023/08/14 08:36:23;;;;;;;6.57;5.88;;;32.10;99.90;;;;;;5035835;28;20319;-86
2023/08/14 08:38:49;;;;;;;6.05;4.47;;;31.90;99.90;;;;;;5037561;28;20337;-85
2023/08/14 08:41:24;;;;;;;4.43;4.03;;;32.00;99.90;;;;;;5036014;28;20204;-88
2023/08/14 08:43:59;;;;;;;7.53;4.47;;;32.10;99.90;;;;;;5036062;28;20171;-89
2023/08/14 08:46:24;;;;;;;8.25;4.55;;;32.30;99.90;;;;;;5036246;28;20175;-87
2023/08/14 08:48:51;;;;;;;5.63;5.05;;;32.20;99.90;;;;;;5035778;28;20261;-86
2023/08/14 08:51:17;;;;;;;5.95;5.30;;;32.40;99.90;;;;;;5037625;28;20191;-87
2023/08/14 08:53:44;;;;;;;6.90;5.10;;;32.40;99.90;;;;;;5035261;28;20366;-87
2023/08/14 08:56:13;;;;;;;4.53;3.13;;;32.70;99.90;;;;;;5035724;28;20179;-86
2023/08/14 08:58:40;;;;;;;4.63;3.58;;;33.00;99.90;;;;;;5049920;28;20251;-87
2023/08/14 09:01:07;;;;;;;4.50;2.45;;;33.30;99.90;;;;;;5056388;28;20210;-87
2023/08/14 09:03:33;;;;;;;3.05;2.75;;;33.60;99.90;;;;;;5055928;28;20210;-86
2023/08/14 09:05:59;;;;;;;4.55;3.00;;;33.60;99.90;;;;;;5060444;28;20171;-87
2023/08/14 09:08:25;;;;;;;5.28;2.40;;;33.50;99.90;;;;;;5050055;28;20565;-87
2023/08/14 09:10:51;;;;;;;14.40;13.35;;;33.10;99.90;;;;;;5035127;28;20672;-86
2023/08/14 09:13:16;;;;;;;5.28;3.53;;;32.50;99.90;;;;;;5035532;28;20176;-87
2023/08/14 09:15:44;;;;;;;5.43;5.03;;;32.00;99.90;;;;;;5034603;28;20182;-87
2023/08/14 09:18:14;;;;;;;5.35;4.57;;;31.50;99.90;;;;;;5035260;28;20212;-87
2023/08/14 09:20:40;;;;;;;6.50;5.95;;;31.40;99.90;;;;;;5037709;28;20195;-87
2023/08/14 09:23:10;;;;;;;5.28;4.85;;;31.20;99.90;;;;;;5038452;28;20262;-88
2023/08/14 09:25:40;;;;;;;4.78;4.38;;;30.80;99.90;;;;;;5042994;28;20221;-87
2023/08/14 09:28:08;;;;;;;5.00;2.80;;;30.60;99.90;;;;;;5054750;28;20194;-86
2023/08/14 09:30:36;;;;;;;7.20;3.05;;;30.20;99.90;;;;;;5026906;28;20187;-87
2023/08/14 09:33:07;;;;;;;9.25;3.80;;;30.00;99.90;;;;;;5036197;28;20180;-87
2023/08/14 09:35:34;;;;;;;5.00;3.00;;;30.00;99.90;;;;;;5036025;28;20179;-87
2023/08/14 09:37:59;;;;;;;5.43;3.58;;;30.00;99.90;;;;;;5034911;28;20196;-87
2023/08/14 09:40:25;;;;;;;5.57;3.60;;;30.00;99.90;;;;;;5035981;28;20731;-88
2023/08/14 09:42:56;;;;;;;3.78;3.20;;;30.00;99.90;;;;;;5037113;28;20245;-87
2023/08/14 09:45:23;;;;;;;3.10;2.80;;;30.20;99.90;;;;;;5036314;28;20206;-87
2023/08/14 09:47:50;;;;;;;4.22;3.20;;;30.60;99.90;;;;;;5036998;28;20190;-88
2023/08/14 09:50:17;;;;;;;8.05;7.45;;;30.90;99.90;;;;;;5035053;28;20175;-87
2023/08/14 09:52:43;;;;;;;7.40;6.78;;;30.90;99.90;;;;;;5058961;28;20178;-88
2023/08/14 09:55:10;;;;;;;7.00;5.32;;;30.80;99.90;;;;;;5035425;28;20202;-87
2023/08/14 09:57:36;;;;;;;3.38;3.08;;;30.70;99.90;;;;;;5035713;28;20263;-86
2023/08/14 10:00:03;;;;;;;7.80;6.15;;;30.80;99.90;;;;;;5035362;28;20179;-87
2023/08/14 10:02:31;;;;;;;4.63;3.92;;;30.90;99.90;;;;;;5032664;28;20206;-87
2023/08/14 10:04:59;;;;;;;9.20;8.63;;;31.00;99.90;;;;;;5034918;28;20549;-87
2023/08/14 10:07:26;;;;;;;7.45;6.95;;;31.10;99.90;;;;;;5035095;28;20196;-87
2023/08/14 10:09:57;;;;;;;5.85;5.38;;;31.00;99.90;;;;;;5035958;28;20277;-86
2023/08/14 10:12:36;;;;;;;5.25;4.75;;;31.40;99.90;;;;;;5055437;28;20680;-87
2023/08/14 10:15:10;;;;;;;7.90;6.68;;;31.70;99.90;;;;;;5054153;28;20182;-87
2023/08/14 10:18:02;;;;;;;5.75;3.92;;;31.90;99.90;;;;;;5054140;28;20202;-87
2023/08/14 10:20:34;;;;;;;6.93;5.13;;;32.10;99.90;;;;;;5054604;28;20183;-86
2023/08/14 10:23:02;;;;;;;10.50;5.65;;;32.00;99.90;;;;;;5032872;28;20607;-85
2023/08/14 10:25:28;;;;;;;5.80;4.05;;;31.90;99.90;;;;;;5032098;28;20206;-87
2023/08/14 10:27:54;;;;;;;6.72;6.15;;;32.00;99.90;;;;;;5046733;22;20218;-74
2023/08/14 10:30:24;;;;;;;8.32;7.20;;;32.10;99.90;;;;;;5030780;28;20176;-73
2023/08/14 10:32:51;;;;;;;6.18;5.57;;;32.40;99.90;;;;;;5030759;28;20174;-74
2023/08/14 10:35:17;;;;;;;8.20;7.53;;;32.90;99.90;;;;;;5030815;28;20191;-74
2023/08/14 10:37:44;;;;;;;5.75;3.38;;;33.10;99.90;;;;;;5031501;28;20210;-74
2023/08/14 10:40:14;;;;;;;5.55;5.00;;;32.70;99.90;;;;;;5030801;28;20180;-74
2023/08/14 10:42:56;;;;;;;8.38;6.53;;;32.20;99.90;;;;;;5031200;28;20266;-74
2023/08/14 10:45:24;;;;;;;6.43;5.90;;;31.90;99.90;;;;;;5030857;28;20229;-74
2023/08/14 10:47:51;;;;;;;6.38;5.07;;;31.70;99.90;;;;;;5030993;28;20633;-74
2023/08/14 10:50:20;;;;;;;5.63;3.83;;;31.70;99.90;;;;;;5030581;28;20183;-75
2023/08/14 10:52:52;;;;;;;7.05;4.47;;;31.60;99.90;;;;;;5030468;28;20178;-74
2023/08/14 10:55:25;;;;;;;5.97;4.90;;;31.60;99.90;;;;;;5030582;28;20174;-74
2023/08/14 10:57:53;;;;;;;9.23;5.22;;;31.30;99.90;;;;;;5028527;28;20183;-74
2023/08/14 11:00:24;;;;;;;9.60;4.90;;;30.90;99.90;;;;;;5030188;28;20250;-74
2023/08/14 11:02:51;;;;;;;7.05;3.85;;;30.60;99.90;;;;;;5030506;28;20671;-74
2023/08/14 11:05:17;;;;;;;5.18;3.28;;;30.40;99.90;;;;;;5030763;28;20211;-74
2023/08/14 11:07:57;;;;;;;6.72;3.55;;;30.20;99.90;;;;;;5030783;28;20226;-74
2023/08/14 11:10:25;;;;;;;4.78;3.22;;;30.00;99.90;;;;;;5030744;28;20171;-74
2023/08/14 11:12:53;;;;;;;6.43;3.63;;;30.00;99.90;;;;;;5029313;28;20172;-74
2023/08/14 11:15:20;;;;;;;4.38;3.60;;;30.10;99.90;;;;;;5030594;28;20167;-74
2023/08/14 11:17:47;;;;;;;5.28;3.30;;;29.70;99.90;;;;;;5029514;28;20175;-74
2023/08/14 11:20:13;;;;;;;13.07;12.23;;;29.50;99.90;;;;;;5030492;28;20172;-74
2023/08/14 11:22:43;;;;;;;6.70;4.72;;;29.40;99.90;;;;;;5033866;28;20207;-74
2023/08/14 11:25:09;;;;;;;4.45;3.72;;;29.30;99.90;;;;;;5034239;28;20534;-74
2023/08/14 11:27:34;;;;;;;6.63;4.38;;;29.20;99.90;;;;;;5032872;28;20174;-75
2023/08/14 11:30:02;;;;;;;10.13;9.23;;;29.10;99.90;;;;;;5032456;28;20266;-74
2023/08/14 11:32:28;;;;;;;16.67;15.70;;;29.10;99.90;;;;;;5033927;28;20637;-74
2023/08/14 11:34:54;;;;;;;16.23;15.27;;;29.20;99.90;;;;;;5034320;28;20556;-74
2023/08/14 11:37:20;;;;;;;6.07;5.35;;;29.30;99.90;;;;;;5034081;28;20179;-74
2023/08/14 11:39:46;;;;;;;8.52;7.93;;;29.40;99.90;;;;;;5034414;28;20183;-74
2023/08/14 11:42:12;;;;;;;4.63;4.22;;;29.50;99.90;;;;;;5033488;28;20199;-74
2023/08/14 11:44:37;;;;;;;5.60;4.05;;;29.30;99.90;;;;;;5033955;28;20274;-74
2023/08/14 11:47:06;;;;;;;4.90;4.32;;;29.20;99.90;;;;;;5032364;28;20176;-74
2023/08/14 11:49:36;;;;;;;4.45;3.75;;;29.40;99.90;;;;;;5034010;28;20168;-75
2023/08/14 11:52:03;;;;;;;5.22;4.80;;;29.40;99.90;;;;;;5032340;28;20663;-74
2023/08/14 11:54:30;;;;;;;5.97;5.20;;;29.50;99.90;;;;;;5033366;28;20226;-74
2023/08/14 11:56:55;;;;;;;6.53;4.15;;;29.70;99.90;;;;;;5033567;28;20228;-74
2023/08/14 11:59:21;;;;;;;4.75;3.88;;;30.00;99.90;;;;;;5033527;28;20179;-74
2023/08/14 12:01:47;;;;;;;3.63;3.33;;;29.80;99.90;;;;;;5031475;28;20614;-74
2023/08/14 12:04:12;;;;;;;5.75;4.68;;;29.60;99.90;;;;;;5033189;28;20203;-74
2023/08/14 12:06:38;;;;;;;5.55;4.78;;;29.40;99.90;;;;;;5033664;28;20175;-73
2023/08/14 12:09:09;;;;;;;4.57;4.15;;;29.20;99.90;;;;;;5032798;28;20543;-74
2023/08/14 12:11:37;;;;;;;4.93;4.50;;;29.10;99.90;;;;;;5032625;28;20187;-74
2023/08/14 12:14:04;;;;;;;3.35;3.05;;;29.10;99.90;;;;;;5032568;28;20282;-74
2023/08/14 12:16:30;;;;;;;4.68;4.28;;;29.30;99.90;;;;;;5033638;28;20537;-74
2023/08/14 12:18:56;;;;;;;5.55;3.92;;;29.50;99.90;;;;;;5033281;28;20179;-74
2023/08/14 12:21:27;;;;;;;5.07;4.32;;;29.70;99.90;;;;;;5013144;28;20204;-74
2023/08/14 12:23:54;;;;;;;8.23;4.30;;;29.70;99.90;;;;;;5028499;28;20192;-73
2023/08/14 12:26:21;;;;;;;5.60;3.63;;;29.70;99.90;;;;;;5011948;28;20243;-75
2023/08/14 12:28:47;;;;;;;7.40;4.07;;;29.80;99.90;;;;;;5013416;28;20628;-74
2023/08/14 12:31:14;;;;;;;4.93;3.97;;;29.80;99.90;;;;;;5013221;28;20219;-73
2023/08/14 12:33:42;;;;;;;6.45;3.22;;;29.80;99.90;;;;;;5012454;28;20184;-74
2023/08/14 12:36:11;;;;;;;9.52;3.85;;;29.80;99.90;;;;;;5014461;28;20176;-75
2023/08/14 12:38:38;;;;;;;9.73;4.03;;;30.00;99.90;;;;;;5028515;28;20191;-75
2023/08/14 12:41:04;;;;;;;4.53;3.30;;;30.10;99.90;;;;;;5012950;28;20196;-75
2023/08/14 12:43:30;;;;;;;4.50;4.07;;;30.20;99.90;;;;;;5012821;28;20192;-72
2023/08/14 12:45:56;;;;;;;6.40;4.10;;;30.30;99.90;;;;;;5012968;28;20175;-74